Börgöndi repülõtér

Információk

Albatrosz Repülő Egyesület
8000 Székesfehérvár,
Radványi utca 6.

Adószám:
19092908-2-07

Bankszámla szám:
Budapest Bank
10102952-01361819-00000001

Telefon: +36 30 9598-897

Telephey: Börgönd repülőtér

LHBP METAR/TAF

[source: ADDS]
METAR
TAF LHBP 232300Z 2400/2424 35004KT CAVOK TEMPO 2401/2406 5000 BR NSC BECMG 2406/2409 06011KT 9999 SCT036 BKN200 TEMPO 2411/2415 -SHRA SCT030CB BKN035 TEMPO 2415/2424 -RA -SHRA SCT030 BKN033 TAF
TAF LHBP 232300Z 2400/2424 35004KT CAVOK TEMPO 2401/2406 5000 BR NSC BECMG 2406/2409 06011KT 9999 SCT036 BKN200 TEMPO 2411/2415 -SHRA SCT030CB BKN035 TEMPO 2415/2424 -RA -SHRA SCT030 BKN033 =
SR / SS: 03:43 / 17:49 UTC (Börgönd 2014-04-24)
Hungarian Chinese (Simplified) Croatian Czech English Finnish French German Hebrew Italian Japanese Polish Portuguese Romanian Russian Serbian Slovak Slovenian Spanish

Belépés tagoknak